Time;durP1;ratioP1;P1;durP2;ratioP2;P2;SDS_P1;SDS_P2;PMS_P1;PMS_P2;Temp;Humidity;BMP_temperature;BMP_pressure;BME280_temperature;BME280_humidity;BME280_pressure;Samples;Min_cycle;Max_cycle;Signal;HPM_P1;HPM_P2
2021/03/11 00:00:23;;;;;;;1.42;1.30;;;;;;;-2.35;100.00;92948.84;5009144;28;20046;-79
2021/03/11 00:02:49;;;;;;;2.42;1.23;;;;;;;-2.45;100.00;92945.56;5008922;28;20057;-79
2021/03/11 00:05:19;;;;;;;1.00;0.77;;;;;;;-2.50;100.00;92940.94;5000956;28;20047;-79
2021/03/11 00:07:45;;;;;;;1.05;0.93;;;;;;;-2.33;100.00;92957.03;4989259;28;20061;-79
2021/03/11 00:10:12;;;;;;;1.10;0.82;;;;;;;-2.35;100.00;92951.38;4989099;28;20039;-79
2021/03/11 00:12:39;;;;;;;1.08;0.82;;;;;;;-2.33;100.00;92966.31;4989287;28;20113;-79
2021/03/11 00:15:08;;;;;;;2.30;1.55;;;;;;;-2.45;100.00;92945.56;4989322;28;20055;-79
2021/03/11 00:17:34;;;;;;;2.55;1.20;;;;;;;-2.41;100.00;92964.47;4990731;28;20050;-79
2021/03/11 00:20:00;;;;;;;;;;;;;;;-2.35;100.00;92966.47;5009084;28;20080;-78
2021/03/11 00:22:27;;;;;;;0.93;0.75;;;;;;;-2.38;100.00;92959.19;5008916;28;20279;-78
2021/03/11 00:24:53;;;;;;;2.85;0.80;;;;;;;-2.38;100.00;92959.19;5009009;28;20422;-79
2021/03/11 00:27:20;;;;;;;;;;;;;;;-2.48;100.00;92951.66;5009696;28;20054;-78
2021/03/11 00:29:46;;;;;;;1.63;1.52;;;;;;;-2.57;100.00;92955.78;5012584;28;19922;-78
2021/03/11 00:32:12;;;;;;;;;;;;;;;-2.67;100.00;92942.44;5013194;28;20066;-79
2021/03/11 00:34:39;;;;;;;0.60;0.60;;;;;;;-2.68;100.00;92948.41;5012445;28;19961;-79
2021/03/11 00:37:05;;;;;;;;;;;;;;;-2.72;100.00;92944.56;5012939;28;20057;-78
2021/03/11 00:39:32;;;;;;;1.85;0.75;;;;;;;-2.78;100.00;92943.38;5011183;28;19926;-79
2021/03/11 00:41:58;;;;;;;1.17;0.80;;;;;;;-2.78;100.00;92945.88;5012385;28;20096;-78
2021/03/11 00:44:24;;;;;;;;;;;;;;;-2.75;100.00;92945.63;5012780;28;20050;-78
2021/03/11 00:46:50;;;;;;;1.02;0.98;;;;;;;-2.82;100.00;92952.91;5012205;28;20316;-79
2021/03/11 00:49:17;;;;;;;1.20;0.82;;;;;;;-3.05;100.00;92936.53;5012049;28;20053;-78
2021/03/11 00:51:43;;;;;;;;;;;;;;;-2.78;100.00;92955.94;5012462;28;20049;-79
2021/03/11 00:54:09;;;;;;;0.50;0.50;;;;;;;-2.91;100.00;92935.34;5011928;28;19921;-79
2021/03/11 00:56:37;;;;;;;1.85;0.75;;;;;;;-2.76;100.00;92958.31;5011791;28;20080;-79
2021/03/11 00:59:03;;;;;;;1.98;1.30;;;;;;;-2.69;100.00;92956.84;5011727;28;20053;-79
2021/03/11 01:01:30;;;;;;;1.60;1.30;;;;;;;-2.62;100.00;92962.94;5011582;28;20057;-79
2021/03/11 01:03:57;;;;;;;2.10;1.50;;;;;;;-2.59;100.00;92959.38;5011602;28;20052;-79
2021/03/11 01:06:23;;;;;;;2.15;0.95;;;;;;;-2.48;100.00;92958.41;5011672;28;20462;-79
2021/03/11 01:08:49;;;;;;;;;;;;;;;-2.50;100.00;92950.22;5012372;28;20054;-79
2021/03/11 01:11:15;;;;;;;1.90;1.27;;;;;;;-2.49;100.00;92952.59;5011776;28;19921;-79
2021/03/11 01:13:42;;;;;;;0.98;0.88;;;;;;;-2.62;100.00;92937.00;5011266;28;20050;-78
2021/03/11 01:16:09;;;;;;;2.30;1.80;;;;;;;-2.78;100.00;92928.28;5011774;28;20383;-78
2021/03/11 01:18:35;;;;;;;3.33;1.23;;;;;;;-2.60;100.00;92948.50;5011396;28;20053;-79
2021/03/11 01:21:01;;;;;;;;;;;;;;;-2.64;100.00;92948.91;5011546;28;20502;-79
2021/03/11 01:23:28;;;;;;;2.05;1.30;;;;;;;-2.66;100.00;92946.53;5011236;28;19981;-79
2021/03/11 01:25:54;;;;;;;;;;;;;;;-2.76;100.00;92941.53;5011657;28;20049;-79
2021/03/11 01:28:20;;;;;;;1.63;0.90;;;;;;;-2.68;100.00;92948.41;5011120;28;19972;-79
2021/03/11 01:30:47;;;;;;;0.88;0.70;;;;;;;-2.71;100.00;92946.16;5011404;28;20093;-79
2021/03/11 01:33:14;;;;;;;0.65;0.60;;;;;;;-2.62;100.00;92949.56;5011419;28;20081;-79
2021/03/11 01:35:40;;;;;;;1.88;1.48;;;;;;;-2.67;100.00;92941.63;5011154;28;20072;-79
2021/03/11 01:38:07;;;;;;;1.00;0.90;;;;;;;-2.63;100.00;92953.81;5011005;28;20050;-79
2021/03/11 01:40:33;;;;;;;0.55;0.40;;;;;;;-2.64;100.00;92946.41;5011046;28;20053;-79
2021/03/11 01:43:00;;;;;;;2.53;1.17;;;;;;;-2.54;100.00;92962.28;5010735;28;20058;-79
2021/03/11 01:45:26;;;;;;;0.68;0.68;;;;;;;-2.58;100.00;92956.69;5010869;28;20056;-79
2021/03/11 01:47:54;;;;;;;2.10;0.73;;;;;;;-2.53;100.00;92960.53;5011109;28;20483;-79
2021/03/11 01:50:20;;;;;;;1.90;0.57;;;;;;;-2.52;100.00;92962.91;5010572;28;20522;-78
2021/03/11 01:52:47;;;;;;;2.33;1.05;;;;;;;-2.54;100.00;92964.78;5010748;28;20057;-79
2021/03/11 01:55:14;;;;;;;1.63;1.30;;;;;;;-2.58;100.00;92959.22;5010948;28;20054;-79
2021/03/11 01:57:42;;;;;;;0.93;0.40;;;;;;;-2.59;100.00;92959.38;5010390;28;20050;-79
2021/03/11 02:00:11;;;;;;;2.22;1.65;;;;;;;-2.68;100.00;92958.47;5010865;28;20057;-78
2021/03/11 02:02:40;;;;;;;0.93;0.82;;;;;;;-2.56;100.00;92959.88;5010654;28;20050;-78
2021/03/11 02:05:08;;;;;;;3.72;1.88;;;;;;;-2.56;100.00;92967.44;5010532;28;20045;-78
2021/03/11 02:07:35;;;;;;;2.63;1.67;;;;;;;-2.73;100.00;92943.75;5010613;28;20046;-78
2021/03/11 02:10:01;;;;;;;2.38;1.98;;;;;;;-2.67;100.00;92959.22;5010243;28;20046;-77
2021/03/11 02:12:37;;;;;;;2.55;1.23;;;;;;;-2.75;100.00;92943.13;5010316;28;20057;-78
2021/03/11 02:15:07;;;;;;;5.10;1.48;;;;;;;-2.65;100.00;92932.25;5010328;28;20050;-78
2021/03/11 02:17:40;;;;;;;3.15;1.00;;;;;;;-2.63;100.00;92948.78;5010310;28;20141;-78
2021/03/11 02:20:32;;;;;;;1.70;1.00;;;;;;;-2.66;100.00;92956.59;5010324;28;20046;-78
2021/03/11 02:23:25;;;;;;;1.30;0.55;;;;;;;-2.69;100.00;92951.81;5010182;28;20054;-79
2021/03/11 02:26:02;;;;;;;0.98;0.60;;;;;;;-2.63;100.00;92961.38;5010294;28;20064;-78
2021/03/11 02:28:36;;;;;;;1.05;0.50;;;;;;;-2.73;100.00;92953.81;5010120;28;20046;-78
2021/03/11 02:31:03;;;;;;;2.60;1.00;;;;;;;-2.84;100.00;92959.81;5010130;28;20065;-78
2021/03/11 02:33:34;;;;;;;1.27;1.05;;;;;;;-2.81;100.00;92961.25;5010256;28;20042;-78
2021/03/11 02:36:02;;;;;;;0.70;0.50;;;;;;;-2.76;100.00;92970.91;5010042;28;20426;-79
2021/03/11 02:38:29;;;;;;;0.55;0.55;;;;;;;-2.71;100.00;92968.78;5009864;28;20054;-79
2021/03/11 02:41:00;;;;;;;0.22;0.22;;;;;;;-2.68;100.00;92971.03;5010164;28;20529;-78
2021/03/11 02:43:28;;;;;;;1.52;1.42;;;;;;;-2.83;100.00;92958.88;5010130;28;20462;-78
2021/03/11 02:45:55;;;;;;;3.13;1.00;;;;;;;-2.69;100.00;92972.75;5010054;28;20049;-78
2021/03/11 02:48:23;;;;;;;1.05;0.60;;;;;;;-2.62;100.00;92972.19;5009684;28;20104;-78
2021/03/11 02:50:50;;;;;;;2.28;1.33;;;;;;;-2.75;100.00;92983.34;5009632;28;20050;-77
2021/03/11 02:53:17;;;;;;;0.52;0.40;;;;;;;-2.76;100.00;92976.72;5009925;28;20057;-78
2021/03/11 02:55:45;;;;;;;1.92;0.77;;;;;;;-2.65;100.00;92980.03;5009776;28;20651;-77
2021/03/11 02:58:13;;;;;;;1.85;1.02;;;;;;;-2.96;100.00;92966.69;5009619;28;20042;-78
2021/03/11 03:00:40;;;;;;;1.33;1.23;;;;;;;-2.90;100.00;92987.19;5009536;28;20045;-78
2021/03/11 03:03:09;;;;;;;0.57;0.45;;;;;;;-2.85;100.00;92980.03;5009756;28;20054;-78
2021/03/11 03:05:38;;;;;;;2.97;2.13;;;;;;;-2.87;100.00;92986.94;5009322;28;20109;-78
2021/03/11 03:08:07;;;;;;;2.60;1.45;;;;;;;-2.84;100.00;93000.03;5009758;28;20414;-78
2021/03/11 03:10:36;;;;;;;0.85;0.80;;;;;;;-2.85;100.00;93002.66;5009728;28;20042;-78
2021/03/11 03:13:06;;;;;;;1.90;1.42;;;;;;;-2.90;100.00;92997.22;5009620;28;20068;-79
2021/03/11 03:15:34;;;;;;;2.10;1.42;;;;;;;-2.91;100.00;93006.50;5009247;28;20053;-78
2021/03/11 03:18:00;;;;;;;2.03;0.52;;;;;;;-2.92;100.00;93004.13;5009267;28;20495;-79
2021/03/11 03:20:28;;;;;;;0.57;0.57;;;;;;;-2.94;100.00;92994.19;5009563;28;20419;-78
2021/03/11 03:22:57;;;;;;;2.22;1.48;;;;;;;-3.04;100.00;92991.69;5009268;28;20049;-77
2021/03/11 03:25:24;;;;;;;1.23;1.13;;;;;;;-3.03;100.00;93000.81;5009401;28;20399;-78
2021/03/11 03:27:50;;;;;;;1.35;1.10;;;;;;;-2.99;100.00;93006.38;5009509;28;20061;-77
2021/03/11 03:30:19;;;;;;;2.85;0.88;;;;;;;-2.99;100.00;93017.22;5009269;28;20503;-79
2021/03/11 03:32:46;;;;;;;1.48;1.25;;;;;;;-2.96;100.00;93016.94;5009531;28;20056;-78
2021/03/11 03:35:14;;;;;;;5.22;1.70;;;;;;;-3.07;100.00;93006.25;5009181;28;20495;-79
2021/03/11 03:37:41;;;;;;;3.22;1.98;;;;;;;-2.99;100.00;93016.41;5009466;28;20411;-78
2021/03/11 03:40:13;;;;;;;0.88;0.65;;;;;;;-2.98;100.00;93018.00;5009548;28;20050;-79
2021/03/11 03:42:43;;;;;;;4.07;1.50;;;;;;;-3.01;100.00;93016.53;5008932;28;20054;-79
2021/03/11 03:45:12;;;;;;;2.55;1.85;;;;;;;-3.04;100.00;93008.47;5009235;28;20049;-79
2021/03/11 03:47:40;;;;;;;1.48;1.38;;;;;;;-3.16;100.00;93002.81;5009188;28;20866;-78
2021/03/11 03:50:09;;;;;;;1.00;0.57;;;;;;;-3.12;100.00;93007.44;5009190;28;20052;-78
2021/03/11 03:52:36;;;;;;;1.27;0.90;;;;;;;-3.13;100.00;92995.78;5009189;28;20483;-78
2021/03/11 03:55:05;;;;;;;0.60;0.52;;;;;;;-3.09;100.00;92992.06;5009189;28;20057;-78
2021/03/11 03:57:33;;;;;;;2.45;1.98;;;;;;;-2.96;100.00;93011.13;5008998;28;20092;-78
2021/03/11 04:00:00;;;;;;;1.00;0.50;;;;;;;-3.04;100.00;93021.03;5008922;28;20061;-78
2021/03/11 04:02:27;;;;;;;1.42;0.98;;;;;;;-3.10;100.00;93020.63;5009692;28;20053;-78
2021/03/11 04:04:54;;;;;;;1.88;1.45;;;;;;;-3.05;100.00;93019.47;5012724;28;20053;-79
2021/03/11 04:07:23;;;;;;;0.73;0.60;;;;;;;-3.26;100.00;93008.59;5012665;28;20536;-80
2021/03/11 04:09:50;;;;;;;1.63;1.15;;;;;;;-3.20;100.00;93011.53;5013079;28;20050;-79
2021/03/11 04:12:17;;;;;;;0.63;0.60;;;;;;;-3.11;100.00;93031.63;5013028;28;20056;-79
2021/03/11 04:14:46;;;;;;;4.57;3.55;;;;;;;-3.19;100.00;93018.94;5012797;28;20046;-79
2021/03/11 04:17:13;;;;;;;2.70;1.15;;;;;;;-3.14;100.00;93041.16;5012572;28;20528;-79
2021/03/11 04:19:41;;;;;;;1.85;1.52;;;;;;;-3.09;100.00;93037.31;5012421;28;20053;-79
2021/03/11 04:22:08;;;;;;;1.65;0.73;;;;;;;-3.13;100.00;93041.03;5012509;28;20050;-79
2021/03/11 04:24:36;;;;;;;1.15;1.05;;;;;;;-3.22;100.00;93039.28;5012515;28;20046;-79
2021/03/11 04:27:04;;;;;;;1.08;0.70;;;;;;;-3.32;100.00;93013.34;5012555;28;20466;-80
2021/03/11 04:29:30;;;;;;;0.93;0.60;;;;;;;-3.10;100.00;93047.50;5012510;28;20068;-78
2021/03/11 04:31:58;;;;;;;2.05;1.10;;;;;;;-3.19;100.00;93048.28;5012778;28;20072;-79
2021/03/11 04:34:25;;;;;;;4.72;1.77;;;;;;;-3.25;100.00;93045.34;5012200;28;20049;-79
2021/03/11 04:36:51;;;;;;;4.22;2.33;;;;;;;-3.16;100.00;93051.31;5012406;28;20046;-79
2021/03/11 04:39:19;;;;;;;3.47;2.80;;;;;;;-3.36;100.00;93028.69;5012424;28;20449;-81
2021/03/11 04:41:46;;;;;;;1.92;1.25;;;;;;;-3.25;100.00;93037.00;5011963;28;20061;-78
2021/03/11 04:44:14;;;;;;;4.13;2.15;;;;;;;-3.19;100.00;93063.34;5012311;28;20053;-77
2021/03/11 04:46:41;;;;;;;5.07;1.80;;;;;;;-3.26;100.00;93053.81;5012159;28;20046;-78
2021/03/11 04:49:10;;;;;;;2.58;2.38;;;;;;;-3.15;100.00;93065.47;5011912;28;20093;-78
2021/03/11 04:51:40;;;;;;;11.13;2.45;;;;;;;-3.14;100.00;93071.28;5012061;28;20076;-78
2021/03/11 04:54:06;;;;;;;6.93;2.63;;;;;;;-3.09;100.00;93069.19;5012057;28;20057;-79
2021/03/11 04:56:34;;;;;;;2.92;2.30;;;;;;;-3.27;100.00;93064.00;5011725;28;20049;-78
2021/03/11 04:59:00;;;;;;;9.48;2.03;;;;;;;-3.26;100.00;93073.91;5011613;28;20045;-79
2021/03/11 05:01:33;;;;;;;0.75;0.60;;;;;;;-3.22;100.00;93077.78;5011984;28;20108;-78
2021/03/11 05:04:02;;;;;;;1.23;1.08;;;;;;;-3.24;100.00;93089.66;5011664;28;20050;-78
2021/03/11 05:06:29;;;;;;;1.20;0.80;;;;;;;-3.22;100.00;93095.34;5011674;28;20047;-79
2021/03/11 05:08:55;;;;;;;3.75;1.55;;;;;;;-3.22;100.00;93090.31;5011564;28;20050;-78
2021/03/11 05:11:21;;;;;;;;;;;;;;;-3.19;100.00;93094.31;5011966;28;20046;-78
2021/03/11 05:13:48;;;;;;;2.53;1.70;;;;;;;-3.25;100.00;93087.25;5011413;28;19968;-78
2021/03/11 05:16:14;;;;;;;3.53;1.48;;;;;;;-3.16;100.00;93106.59;5011827;28;20107;-78
2021/03/11 05:18:40;;;;;;;;;;;;;;;-3.16;100.00;93100.78;5011723;28;20041;-78
2021/03/11 05:21:07;;;;;;;1.63;1.00;;;;;;;-3.10;100.00;93107.81;5011523;28;19944;-77
2021/03/11 05:23:35;;;;;;;5.60;1.65;;;;;;;-3.14;100.00;93088.88;5011399;28;20046;-78
2021/03/11 05:26:02;;;;;;;2.25;1.30;;;;;;;-3.11;100.00;93119.56;5011465;28;20046;-78
2021/03/11 05:28:28;;;;;;;1.15;1.05;;;;;;;-3.32;100.00;93102.06;5011425;28;20952;-77
2021/03/11 05:30:54;;;;;;;;;;;;;;;-3.19;100.00;93116.09;5011796;28;20057;-77
2021/03/11 05:33:21;;;;;;;2.08;0.95;;;;;;;-3.23;100.00;93120.59;5005249;28;20322;-77
2021/03/11 05:35:47;;;;;;;1.73;1.20;;;;;;;-3.10;100.00;93126.19;5005689;28;20057;-77
2021/03/11 05:38:13;;;;;;;0.60;0.60;;;;;;;-3.18;100.00;93122.72;5009432;28;20566;-77
2021/03/11 05:40:41;;;;;;;2.00;1.40;;;;;;;-3.24;100.00;93121.53;5010980;28;20411;-77
2021/03/11 05:43:08;;;;;;;1.27;1.17;;;;;;;-3.21;100.00;93126.28;5010825;28;20045;-79
2021/03/11 05:45:35;;;;;;;1.50;1.02;;;;;;;-3.15;100.00;93128.28;5011288;28;20156;-78
2021/03/11 05:48:02;;;;;;;0.55;0.55;;;;;;;-3.10;100.00;93117.88;5010985;28;20423;-78
2021/03/11 05:50:29;;;;;;;0.95;0.63;;;;;;;-3.21;100.00;93116.22;5010874;28;20049;-78
2021/03/11 05:52:57;;;;;;;1.63;0.93;;;;;;;-3.18;100.00;93116.00;5010779;28;20049;-77
2021/03/11 05:55:24;;;;;;;1.65;1.20;;;;;;;-3.09;100.00;93140.31;5010634;28;20594;-78
2021/03/11 05:57:52;;;;;;;1.17;1.08;;;;;;;-3.20;100.00;93142.94;5011205;28;20463;-77
2021/03/11 06:00:20;;;;;;;21.67;13.35;;;;;;;-3.29;100.00;93126.13;5011117;28;20045;-77
2021/03/11 06:02:55;;;;;;;94.00;30.67;;;;;;;-3.14;100.00;93146.66;5011119;28;20046;-78
2021/03/11 06:05:21;;;;;;;9.40;6.75;;;;;;;-3.15;100.00;93143.34;5012735;28;20069;-78
2021/03/11 06:07:49;;;;;;;5.95;4.32;;;;;;;-3.09;100.00;93155.41;5011808;28;20060;-77
2021/03/11 06:10:19;;;;;;;4.32;2.70;;;;;;;-2.98;100.00;93168.78;5011390;28;20049;-78
2021/03/11 06:12:47;;;;;;;12.18;5.00;;;;;;;-3.05;100.00;93157.66;5009583;28;20442;-79
2021/03/11 06:15:23;;;;;;;5.32;3.85;;;;;;;-3.06;100.00;93153.56;5027561;28;20465;-77
2021/03/11 06:17:50;;;;;;;10.60;7.78;;;;;;;-2.89;100.00;93170.53;5029419;28;20073;-78
2021/03/11 06:20:17;;;;;;;10.35;4.28;;;;;;;-2.92;100.00;93182.59;5029949;28;20060;-78
2021/03/11 06:22:43;;;;;;;26.33;10.25;;;;;;;-2.90;100.00;93193.28;5029741;28;20057;-78
2021/03/11 06:25:09;;;;;;;;;;;;;;;-2.80;100.00;93199.16;5029701;28;20422;-79
2021/03/11 06:27:36;;;;;;;50.53;19.10;;;;;;;-2.89;100.00;93199.91;5030079;28;19967;-79
2021/03/11 06:30:03;;;;;;;55.78;16.98;;;;;;;-2.80;100.00;93214.22;5029804;28;20445;-78
2021/03/11 06:32:30;;;;;;;60.75;20.05;;;;;;;-2.89;100.00;93212.47;5029626;28;20053;-79
2021/03/11 06:34:57;;;;;;;71.55;17.00;;;;;;;-2.82;100.00;93211.06;5029865;28;20045;-78
2021/03/11 06:37:37;;;;;;;34.83;11.10;;;;;;;-2.78;100.00;93216.63;5029498;28;20060;-79
2021/03/11 06:40:14;;;;;;;40.83;12.82;;;;;;;-2.91;100.00;93224.38;5029822;28;20064;-78
2021/03/11 06:42:41;;;;;;;37.55;11.20;;;;;;;-2.90;100.00;93231.00;5029817;28;20104;-78
2021/03/11 06:45:23;;;;;;;8.15;3.50;;;;;;;-3.11;100.00;93239.38;5029196;28;20133;-78
2021/03/11 06:47:51;;;;;;;23.98;9.60;;;;;;;-2.99;100.00;93250.16;5029762;28;20502;-78
2021/03/11 06:50:18;;;;;;;9.60;4.40;;;;;;;-2.88;100.00;93252.56;5029877;28;20045;-78
2021/03/11 06:53:02;;;;;;;15.63;5.93;;;;;;;-2.89;100.00;93250.97;5029509;28;20053;-78
2021/03/11 06:55:29;;;;;;;4.67;2.70;;;;;;;-2.85;100.00;93256.56;5006260;28;20100;-79
2021/03/11 06:57:56;;;;;;;35.83;13.68;;;;;;;-2.99;100.00;93253.47;5008138;28;20053;-78
2021/03/11 07:00:23;;;;;;;10.48;3.08;;;;;;;-2.86;100.00;93249.94;5009433;28;20506;-78
2021/03/11 07:02:52;;;;;;;9.02;2.70;;;;;;;-2.75;100.00;93249.03;5009826;28;20054;-79
2021/03/11 07:05:19;;;;;;;7.68;4.25;;;;;;;-2.69;100.00;93251.03;5009866;28;20053;-78
2021/03/11 07:07:47;;;;;;;13.05;3.70;;;;;;;-2.66;100.00;93242.44;5009798;28;20046;-78
2021/03/11 07:10:24;;;;;;;4.80;1.58;;;;;;;-2.69;100.00;93238.47;5009753;28;20045;-78
2021/03/11 07:12:51;;;;;;;5.40;2.67;;;;;;;-2.53;100.00;93255.59;5009656;28;20119;-78
2021/03/11 07:15:20;;;;;;;29.30;11.07;;;;;;;-2.18;100.00;93256.06;5009562;28;20185;-78
2021/03/11 07:17:46;;;;;;;19.35;5.43;;;;;;;-2.21;100.00;93262.16;5009544;28;20068;-78
2021/03/11 07:20:15;;;;;;;5.57;2.70;;;;;;;-2.10;100.00;93271.28;5019368;28;20184;-79
2021/03/11 07:22:43;;;;;;;1.70;0.90;;;;;;;-1.92;100.00;93283.22;5026938;28;20520;-78
2021/03/11 07:25:26;;;;;;;1.45;1.35;;;;;;;-1.80;100.00;93286.44;5029520;28;20057;-78
2021/03/11 07:27:53;;;;;;;1.33;1.02;;;;;;;-2.07;100.00;93257.66;5014613;28;20096;-79
2021/03/11 07:30:20;;;;;;;2.42;1.00;;;;;;;-1.89;100.00;93277.94;5007319;28;20476;-77
2021/03/11 07:32:46;;;;;;;1.67;1.35;;;;;;;-1.99;100.00;93284.69;5008882;28;20491;-78
2021/03/11 07:35:17;;;;;;;4.50;2.17;;;;;;;-1.88;100.00;93285.38;5009143;28;20057;-78
2021/03/11 07:37:49;;;;;;;1.85;1.30;;;;;;;-2.23;100.00;93264.00;5011990;28;20058;-78
2021/03/11 07:40:17;;;;;;;1.15;1.05;;;;;;;-1.95;100.00;93264.16;5013112;28;20045;-78
2021/03/11 07:42:43;;;;;;;2.95;1.65;;;;;;;-1.66;100.00;93287.75;5013405;28;20049;-78
2021/03/11 07:45:14;;;;;;;1.70;0.85;;;;;;;-1.72;100.00;93294.09;5012967;28;20046;-78
2021/03/11 07:47:41;;;;;;;1.13;0.75;;;;;;;-1.93;100.00;93300.06;5013335;28;20046;-78
2021/03/11 07:50:11;;;;;;;3.42;1.23;;;;;;;-1.95;100.00;93293.59;5013016;28;20049;-78
2021/03/11 07:52:39;;;;;;;1.58;0.80;;;;;;;-1.82;100.00;93319.28;5013570;28;20375;-78
2021/03/11 07:55:07;;;;;;;1.08;0.77;;;;;;;-1.93;100.00;93314.38;5013120;28;20046;-77
2021/03/11 07:57:39;;;;;;;2.25;1.42;;;;;;;-1.96;100.00;93320.47;5012894;28;20569;-78
2021/03/11 08:00:07;;;;;;;3.22;1.65;;;;;;;-2.06;100.00;93314.63;5012861;28;20053;-78
2021/03/11 08:02:36;;;;;;;1.42;1.00;;;;;;;-2.15;100.00;93298.56;5012682;28;20054;-78
2021/03/11 08:05:02;;;;;;;1.35;0.73;;;;;;;-2.11;100.00;93317.53;5008468;28;20045;-79
2021/03/11 08:07:28;;;;;;;2.15;1.15;;;;;;;-1.82;100.00;93324.31;5011098;28;20042;-78
2021/03/11 08:09:59;;;;;;;1.88;1.15;;;;;;;-2.59;100.00;93223.41;5011888;28;20392;-77
2021/03/11 08:12:33;;;;;;;5.93;2.67;;;;;;;-1.78;100.00;93340.78;5012690;28;20050;-77
2021/03/11 08:15:01;;;;;;;16.60;6.40;;;;;;;-1.92;100.00;93339.44;5012854;28;20046;-78
2021/03/11 08:17:44;;;;;;;2.88;1.55;;;;;;;-1.79;100.00;93323.28;5012713;28;20050;-77
2021/03/11 08:20:37;;;;;;;7.72;4.70;;;;;;;-1.57;100.00;93356.69;5012429;28;20049;-77
2021/03/11 08:23:10;;;;;;;3.53;1.73;;;;;;;-1.40;100.00;93350.19;5012507;28;20137;-77
2021/03/11 08:25:55;;;;;;;3.58;1.92;;;;;;;-1.70;100.00;93360.28;5012662;28;20049;-77
2021/03/11 08:28:39;;;;;;;1.45;0.70;;;;;;;-1.67;100.00;93354.19;5012204;28;20065;-77
2021/03/11 08:31:09;;;;;;;2.35;1.58;;;;;;;-1.54;100.00;93366.50;5011414;28;20073;-77
2021/03/11 08:33:44;;;;;;;2.40;1.40;;;;;;;-1.55;100.00;93359.88;5012573;28;20045;-77
2021/03/11 08:36:33;;;;;;;2.25;1.45;;;;;;;-1.70;100.00;93357.75;5012072;28;20487;-78
2021/03/11 08:39:00;;;;;;;5.40;2.25;;;;;;;-2.05;100.00;93353.97;5012603;28;20538;-77
2021/03/11 08:41:31;;;;;;;3.05;1.02;;;;;;;-1.69;100.00;93373.63;5011515;28;20104;-77
2021/03/11 08:43:59;;;;;;;3.25;1.30;;;;;;;-1.57;100.00;93371.81;5012416;28;20061;-77
2021/03/11 08:46:53;;;;;;;2.92;1.92;;;;;;;-1.50;100.00;93358.56;5011694;28;20050;-77
2021/03/11 08:49:39;;;;;;;1.75;1.10;;;;;;;-1.27;100.00;93370.88;5011299;28;20042;-77
2021/03/11 08:52:06;;;;;;;5.80;2.53;;;;;;;-1.25;100.00;93369.03;5011816;28;20041;-77
2021/03/11 08:54:33;;;;;;;2.40;1.70;;;;;;;-1.31;100.00;93377.13;5011964;28;20502;-77
2021/03/11 08:57:00;;;;;;;2.08;1.35;;;;;;;-1.45;100.00;93382.56;5012306;28;20474;-77
2021/03/11 08:59:47;;;;;;;2.67;1.77;;;;;;;-1.44;100.00;93376.59;5012076;28;20050;-77
2021/03/11 09:02:32;;;;;;;2.28;1.70;;;;;;;-1.21;100.00;93388.00;5011721;28;20100;-77
2021/03/11 09:04:58;;;;;;;1.35;1.13;;;;;;;-1.30;100.00;93390.53;5012058;28;20120;-77
2021/03/11 09:07:33;;;;;;;1.77;0.95;;;;;;;-1.40;100.00;93380.41;5011809;28;20052;-77
2021/03/11 09:10:05;;;;;;;1.13;0.60;;;;;;;-1.51;100.00;93379.66;5011939;28;20466;-82
2021/03/11 09:12:35;;;;;;;0.77;0.77;;;;;;;-1.64;100.00;93381.59;5011482;28;20050;-79
2021/03/11 09:15:05;;;;;;;3.17;2.25;;;;;;;-1.52;100.00;93399.94;5011299;28;20050;-81
2021/03/11 09:17:33;;;;;;;6.65;1.58;;;;;;;-1.55;100.00;93385.88;5011305;28;20050;-80
2021/03/11 09:20:01;;;;;;;2.47;1.50;;;;;;;-1.78;100.00;93402.91;5011279;28;20058;-79
2021/03/11 09:22:30;;;;;;;7.13;1.98;;;;;;;-1.71;100.00;93408.25;5011618;28;20435;-80
2021/03/11 09:25:05;;;;;;;1.10;1.00;;;;;;;-1.38;100.00;93416.38;5011466;28;20081;-82
2021/03/11 09:27:32;;;;;;;1.45;0.68;;;;;;;-1.77;100.00;93424.66;5011610;28;20046;-81
2021/03/11 09:30:01;;;;;;;2.60;1.23;;;;;;;-1.99;100.00;93386.16;5011428;28;20088;-81
2021/03/11 09:32:28;;;;;;;5.57;2.78;;;;;;;-1.52;100.00;93420.84;5011025;28;20058;-80
2021/03/11 09:34:57;;;;;;;1.67;1.10;;;;;;;-1.56;100.00;93431.34;5011124;28;20061;-80
2021/03/11 09:37:49;;;;;;;1.70;1.60;;;;;;;-1.61;100.00;93424.94;5011265;28;20049;-78
2021/03/11 09:40:23;;;;;;;2.05;1.45;;;;;;;-1.46;100.00;93429.63;5010878;28;20057;-79
2021/03/11 09:43:15;;;;;;;2.63;1.98;;;;;;;-1.56;100.00;93404.44;5010915;28;20050;-77
2021/03/11 09:45:48;;;;;;;4.03;2.05;;;;;;;-1.45;100.00;93413.59;4996766;28;20136;-78
2021/03/11 09:48:16;;;;;;;4.43;1.63;;;;;;;-1.60;100.00;93420.72;5010499;28;20046;-78
2021/03/11 09:50:55;;;;;;;4.55;1.85;;;;;;;-1.45;100.00;93423.66;5011097;28;20061;-78
2021/03/11 09:53:23;;;;;;;6.03;1.98;;;;;;;-1.51;100.00;93412.41;5010626;28;20050;-78
2021/03/11 09:55:54;;;;;;;5.78;2.72;;;;;;;-1.55;100.00;93420.31;5011057;28;20084;-78
2021/03/11 09:58:21;;;;;;;8.65;2.60;;;;;;;-1.23;100.00;93435.22;5010924;28;20046;-77
2021/03/11 10:00:49;;;;;;;3.55;2.83;;;;;;;-1.21;100.00;93413.19;5009728;28;20384;-77
2021/03/11 10:03:18;;;;;;;4.53;1.58;;;;;;;-0.94;100.00;93426.06;5010761;28;20050;-79
2021/03/11 10:08:38;;;;;;;2.97;1.95;;;;;;;-0.89;100.00;93454.19;5010663;28;20060;-77
2021/03/11 10:11:07;;;;;;;13.20;5.82;;;;;;;-0.84;100.00;93434.41;5010701;28;20053;-77
2021/03/11 10:13:53;;;;;;;1.25;0.88;;;;;;;-0.80;100.00;93424.84;5010700;28;20054;-77
2021/03/11 10:16:40;;;;;;;3.83;1.98;;;;;;;-0.56;100.00;93442.09;5010409;28;20096;-77
2021/03/11 10:19:09;;;;;;;2.42;1.75;;;;;;;-0.48;100.00;93448.16;5010892;28;20062;-78
2021/03/11 10:21:46;;;;;;;3.20;0.85;;;;;;;-0.37;98.39;93452.28;5010069;28;20049;-78
2021/03/11 10:24:13;;;;;;;0.93;0.77;;;;;;;-0.57;99.62;93465.72;5010148;28;20057;-77
2021/03/11 10:26:39;;;;;;;10.68;3.65;;;;;;;-0.66;99.93;93470.78;5010493;28;20487;-78
2021/03/11 10:29:07;;;;;;;20.17;7.18;;;;;;;-0.93;100.00;93459.66;5010214;28;20072;-77
2021/03/11 10:31:34;;;;;;;6.55;3.33;;;;;;;-0.91;100.00;93463.63;5010041;28;20050;-77
2021/03/11 10:34:03;;;;;;;2.28;1.05;;;;;;;-0.31;100.00;93484.53;5010402;28;20042;-77
2021/03/11 10:36:30;;;;;;;4.03;2.40;;;;;;;-0.49;100.00;93484.44;5010228;28;20057;-77
2021/03/11 10:39:09;;;;;;;2.38;1.77;;;;;;;-0.54;100.00;93479.81;5010142;28;20052;-77
2021/03/11 10:41:38;;;;;;;2.97;1.27;;;;;;;-0.71;97.90;93474.50;5009829;28;20474;-77
2021/03/11 10:44:07;;;;;;;3.00;1.65;;;;;;;-0.74;99.27;93467.19;5009618;28;20054;-77
2021/03/11 10:46:33;;;;;;;2.28;1.55;;;;;;;-0.58;100.00;93481.81;5010055;28;20053;-77
2021/03/11 10:48:59;;;;;;;4.20;1.92;;;;;;;-0.50;99.05;93483.66;5010028;28;20042;-77
2021/03/11 10:51:29;;;;;;;7.22;2.63;;;;;;;-0.52;98.87;93479.69;5009872;28;20050;-77
2021/03/11 10:53:58;;;;;;;7.40;2.70;;;;;;;-0.54;99.24;93505.03;5009717;28;20069;-77
2021/03/11 10:56:24;;;;;;;3.70;2.88;;;;;;;-0.72;98.78;93487.25;5009357;28;20077;-77
2021/03/11 10:58:59;;;;;;;4.45;1.98;;;;;;;-0.82;98.75;93498.13;5009799;28;20414;-77
2021/03/11 11:01:28;;;;;;;6.95;2.75;;;;;;;-0.43;100.00;93493.97;5009775;28;20049;-77
2021/03/11 11:03:55;;;;;;;15.43;4.40;;;;;;;-0.19;100.00;93493.53;5009826;28;20081;-77
2021/03/11 11:06:22;;;;;;;4.70;2.10;;;;;;;-0.11;97.66;93460.03;5009611;28;20061;-77
2021/03/11 11:08:49;;;;;;;6.85;2.83;;;;;;;-0.04;95.94;93485.53;5009756;28;20046;-77
2021/03/11 11:11:16;;;;;;;13.65;6.32;;;;;;;0.13;95.92;93484.81;5009079;28;20053;-77
2021/03/11 11:13:43;;;;;;;24.85;8.73;;;;;;;-0.13;96.54;93489.69;5009604;28;20104;-77
2021/03/11 11:16:10;;;;;;;5.85;2.53;;;;;;;0.25;95.42;93492.22;5009569;28;20446;-77
2021/03/11 11:18:36;;;;;;;25.23;6.53;;;;;;;0.40;96.58;93495.06;5009398;28;20042;-77
2021/03/11 11:21:03;;;;;;;16.92;9.85;;;;;;;0.71;93.95;93478.81;5009045;28;20491;-77
2021/03/11 11:23:31;;;;;;;4.00;2.63;;;;;;;0.83;91.94;93487.00;5009770;28;20442;-77
2021/03/11 11:25:58;;;;;;;2.75;1.60;;;;;;;0.63;90.38;93487.13;5009543;28;20084;-77
2021/03/11 11:28:24;;;;;;;5.22;1.95;;;;;;;0.62;92.71;93490.59;5009286;28;20434;-77
2021/03/11 11:30:51;;;;;;;8.77;4.68;;;;;;;0.80;93.38;93483.81;5009209;28;20419;-77
2021/03/11 11:33:18;;;;;;;1.00;0.70;;;;;;;0.85;90.51;93490.19;5009245;28;20050;-77
2021/03/11 11:35:44;;;;;;;;;;;;;;;1.03;89.35;93488.44;5009977;28;20422;-77
2021/03/11 11:38:11;;;;;;;13.95;7.63;;;;;;;0.97;88.38;93489.03;5009497;28;19929;-77
2021/03/11 11:40:37;;;;;;;1.88;1.40;;;;;;;1.70;90.45;93476.31;5009196;28;20046;-77